sensor_id;sensor_type;location;lat;lon;timestamp;P1;durP1;ratioP1;P2;durP2;ratioP2
52816;SDS011;38687;43.330;21.924;2024-02-15T00:01:47;49.00;;;23.77;;
52816;SDS011;38687;43.330;21.924;2024-02-15T00:04:12;42.95;;;23.75;;
52816;SDS011;38687;43.330;21.924;2024-02-15T00:06:38;48.10;;;23.75;;
52816;SDS011;38687;43.330;21.924;2024-02-15T00:09:03;40.75;;;22.55;;
52816;SDS011;38687;43.330;21.924;2024-02-15T00:11:28;58.65;;;23.23;;
52816;SDS011;38687;43.330;21.924;2024-02-15T00:13:54;47.80;;;21.13;;
52816;SDS011;38687;43.330;21.924;2024-02-15T00:16:21;100.65;;;41.50;;
52816;SDS011;38687;43.330;21.924;2024-02-15T00:18:46;72.68;;;35.08;;
52816;SDS011;38687;43.330;21.924;2024-02-15T00:21:12;55.05;;;27.65;;
52816;SDS011;38687;43.330;21.924;2024-02-15T00:23:37;53.83;;;30.33;;
52816;SDS011;38687;43.330;21.924;2024-02-15T00:26:02;53.03;;;25.27;;
52816;SDS011;38687;43.330;21.924;2024-02-15T00:28:27;42.13;;;20.05;;
52816;SDS011;38687;43.330;21.924;2024-02-15T00:30:53;31.38;;;17.80;;
52816;SDS011;38687;43.330;21.924;2024-02-15T00:33:18;43.53;;;21.13;;
52816;SDS011;38687;43.330;21.924;2024-02-15T00:35:43;47.15;;;22.88;;
52816;SDS011;38687;43.330;21.924;2024-02-15T00:38:08;37.97;;;19.45;;
52816;SDS011;38687;43.330;21.924;2024-02-15T00:40:34;46.92;;;22.00;;
52816;SDS011;38687;43.330;21.924;2024-02-15T00:42:59;48.58;;;23.75;;
52816;SDS011;38687;43.330;21.924;2024-02-15T00:45:24;53.03;;;22.70;;
52816;SDS011;38687;43.330;21.924;2024-02-15T00:47:50;46.83;;;22.65;;
52816;SDS011;38687;43.330;21.924;2024-02-15T00:50:15;53.13;;;22.25;;
52816;SDS011;38687;43.330;21.924;2024-02-15T00:52:40;37.25;;;19.67;;
52816;SDS011;38687;43.330;21.924;2024-02-15T00:55:06;32.03;;;14.48;;
52816;SDS011;38687;43.330;21.924;2024-02-15T00:57:31;29.80;;;16.63;;
52816;SDS011;38687;43.330;21.924;2024-02-15T00:59:57;30.35;;;17.13;;
52816;SDS011;38687;43.330;21.924;2024-02-15T01:02:22;29.08;;;15.18;;
52816;SDS011;38687;43.330;21.924;2024-02-15T01:04:48;28.23;;;12.57;;
52816;SDS011;38687;43.330;21.924;2024-02-15T01:07:15;30.17;;;14.80;;
52816;SDS011;38687;43.330;21.924;2024-02-15T01:09:40;30.92;;;16.20;;
52816;SDS011;38687;43.330;21.924;2024-02-15T01:12:06;28.30;;;15.35;;
52816;SDS011;38687;43.330;21.924;2024-02-15T01:14:31;36.63;;;18.05;;
52816;SDS011;38687;43.330;21.924;2024-02-15T01:16:57;34.35;;;18.08;;
52816;SDS011;38687;43.330;21.924;2024-02-15T01:19:22;27.23;;;15.68;;
52816;SDS011;38687;43.330;21.924;2024-02-15T01:21:47;36.30;;;17.95;;
52816;SDS011;38687;43.330;21.924;2024-02-15T01:24:12;33.53;;;17.45;;
52816;SDS011;38687;43.330;21.924;2024-02-15T01:26:38;24.08;;;13.57;;
52816;SDS011;38687;43.330;21.924;2024-02-15T01:29:03;24.65;;;14.18;;
52816;SDS011;38687;43.330;21.924;2024-02-15T01:31:28;28.05;;;14.45;;
52816;SDS011;38687;43.330;21.924;2024-02-15T01:33:54;25.65;;;16.15;;
52816;SDS011;38687;43.330;21.924;2024-02-15T01:36:19;35.30;;;14.80;;
52816;SDS011;38687;43.330;21.924;2024-02-15T01:38:45;28.25;;;13.05;;
52816;SDS011;38687;43.330;21.924;2024-02-15T01:41:11;26.27;;;11.82;;
52816;SDS011;38687;43.330;21.924;2024-02-15T01:43:36;28.30;;;14.57;;
52816;SDS011;38687;43.330;21.924;2024-02-15T01:46:07;24.98;;;12.95;;
52816;SDS011;38687;43.330;21.924;2024-02-15T01:48:34;28.23;;;14.40;;
52816;SDS011;38687;43.330;21.924;2024-02-15T01:50:59;27.42;;;14.88;;
52816;SDS011;38687;43.330;21.924;2024-02-15T01:53:24;22.40;;;13.57;;
52816;SDS011;38687;43.330;21.924;2024-02-15T01:55:51;26.85;;;13.15;;
52816;SDS011;38687;43.330;21.924;2024-02-15T01:58:20;25.30;;;12.70;;
52816;SDS011;38687;43.330;21.924;2024-02-15T02:00:46;37.33;;;14.43;;
52816;SDS011;38687;43.330;21.924;2024-02-15T02:03:14;30.75;;;12.88;;
52816;SDS011;38687;43.330;21.924;2024-02-15T02:05:40;23.83;;;11.93;;
52816;SDS011;38687;43.330;21.924;2024-02-15T02:08:06;19.35;;;10.93;;
52816;SDS011;38687;43.330;21.924;2024-02-15T02:10:34;28.38;;;13.82;;
52816;SDS011;38687;43.330;21.924;2024-02-15T02:13:02;21.73;;;12.65;;
52816;SDS011;38687;43.330;21.924;2024-02-15T02:15:28;22.63;;;12.18;;
52816;SDS011;38687;43.330;21.924;2024-02-15T02:17:56;22.60;;;12.18;;
52816;SDS011;38687;43.330;21.924;2024-02-15T02:20:21;23.00;;;14.25;;
52816;SDS011;38687;43.330;21.924;2024-02-15T02:22:51;25.63;;;12.82;;
52816;SDS011;38687;43.330;21.924;2024-02-15T02:25:20;23.35;;;12.98;;
52816;SDS011;38687;43.330;21.924;2024-02-15T02:27:45;34.40;;;15.23;;
52816;SDS011;38687;43.330;21.924;2024-02-15T02:30:13;25.73;;;13.30;;
52816;SDS011;38687;43.330;21.924;2024-02-15T02:32:46;22.15;;;11.27;;
52816;SDS011;38687;43.330;21.924;2024-02-15T02:35:12;22.35;;;12.38;;
52816;SDS011;38687;43.330;21.924;2024-02-15T02:37:40;23.08;;;11.15;;
52816;SDS011;38687;43.330;21.924;2024-02-15T02:40:06;19.38;;;11.25;;
52816;SDS011;38687;43.330;21.924;2024-02-15T02:42:33;25.25;;;12.43;;
52816;SDS011;38687;43.330;21.924;2024-02-15T02:45:01;23.80;;;12.43;;
52816;SDS011;38687;43.330;21.924;2024-02-15T02:47:27;22.67;;;12.75;;
52816;SDS011;38687;43.330;21.924;2024-02-15T02:49:52;24.90;;;13.98;;
52816;SDS011;38687;43.330;21.924;2024-02-15T02:52:17;28.75;;;14.20;;
52816;SDS011;38687;43.330;21.924;2024-02-15T02:54:46;20.10;;;10.68;;
52816;SDS011;38687;43.330;21.924;2024-02-15T02:57:11;25.13;;;14.38;;
52816;SDS011;38687;43.330;21.924;2024-02-15T02:59:36;25.98;;;13.38;;
52816;SDS011;38687;43.330;21.924;2024-02-15T03:02:04;31.25;;;15.27;;
52816;SDS011;38687;43.330;21.924;2024-02-15T03:04:32;24.30;;;14.98;;
52816;SDS011;38687;43.330;21.924;2024-02-15T03:07:01;21.80;;;11.45;;
52816;SDS011;38687;43.330;21.924;2024-02-15T03:09:26;21.88;;;11.40;;
52816;SDS011;38687;43.330;21.924;2024-02-15T03:11:54;17.45;;;10.45;;
52816;SDS011;38687;43.330;21.924;2024-02-15T03:14:19;28.40;;;13.25;;
52816;SDS011;38687;43.330;21.924;2024-02-15T03:16:45;27.65;;;13.80;;
52816;SDS011;38687;43.330;21.924;2024-02-15T03:19:11;27.30;;;11.45;;
52816;SDS011;38687;43.330;21.924;2024-02-15T03:21:37;25.25;;;11.63;;
52816;SDS011;38687;43.330;21.924;2024-02-15T03:24:02;20.35;;;10.45;;
52816;SDS011;38687;43.330;21.924;2024-02-15T03:26:31;21.77;;;11.65;;
52816;SDS011;38687;43.330;21.924;2024-02-15T03:29:02;30.70;;;15.95;;
52816;SDS011;38687;43.330;21.924;2024-02-15T03:31:27;24.10;;;12.25;;
52816;SDS011;38687;43.330;21.924;2024-02-15T03:33:53;31.70;;;14.93;;
52816;SDS011;38687;43.330;21.924;2024-02-15T03:36:19;28.40;;;14.63;;
52816;SDS011;38687;43.330;21.924;2024-02-15T03:38:45;20.13;;;11.23;;
52816;SDS011;38687;43.330;21.924;2024-02-15T03:41:11;34.60;;;16.73;;
52816;SDS011;38687;43.330;21.924;2024-02-15T03:43:37;40.55;;;14.98;;
52816;SDS011;38687;43.330;21.924;2024-02-15T03:46:05;29.20;;;15.80;;
52816;SDS011;38687;43.330;21.924;2024-02-15T03:48:35;22.83;;;11.60;;
52816;SDS011;38687;43.330;21.924;2024-02-15T03:51:00;19.55;;;10.18;;
52816;SDS011;38687;43.330;21.924;2024-02-15T03:53:26;25.58;;;11.82;;
52816;SDS011;38687;43.330;21.924;2024-02-15T03:55:58;18.23;;;11.50;;
52816;SDS011;38687;43.330;21.924;2024-02-15T03:58:23;15.82;;;9.95;;
52816;SDS011;38687;43.330;21.924;2024-02-15T04:00:48;18.83;;;10.73;;
52816;SDS011;38687;43.330;21.924;2024-02-15T04:03:14;17.65;;;11.35;;
52816;SDS011;38687;43.330;21.924;2024-02-15T04:05:39;19.55;;;10.75;;
52816;SDS011;38687;43.330;21.924;2024-02-15T04:08:07;19.52;;;10.90;;
52816;SDS011;38687;43.330;21.924;2024-02-15T04:10:33;26.00;;;12.07;;
52816;SDS011;38687;43.330;21.924;2024-02-15T04:12:59;22.88;;;11.88;;
52816;SDS011;38687;43.330;21.924;2024-02-15T04:15:24;27.27;;;14.23;;
52816;SDS011;38687;43.330;21.924;2024-02-15T04:17:49;17.73;;;9.27;;
52816;SDS011;38687;43.330;21.924;2024-02-15T04:20:20;36.60;;;17.42;;
52816;SDS011;38687;43.330;21.924;2024-02-15T04:22:46;18.75;;;10.95;;
52816;SDS011;38687;43.330;21.924;2024-02-15T04:25:12;24.95;;;11.15;;
52816;SDS011;38687;43.330;21.924;2024-02-15T04:27:45;24.05;;;12.57;;
52816;SDS011;38687;43.330;21.924;2024-02-15T04:30:14;34.92;;;14.65;;
52816;SDS011;38687;43.330;21.924;2024-02-15T04:32:40;25.40;;;11.70;;
52816;SDS011;38687;43.330;21.924;2024-02-15T04:35:06;27.42;;;16.25;;
52816;SDS011;38687;43.330;21.924;2024-02-15T04:37:34;20.92;;;10.93;;
52816;SDS011;38687;43.330;21.924;2024-02-15T04:39:59;25.65;;;11.90;;
52816;SDS011;38687;43.330;21.924;2024-02-15T04:42:34;30.25;;;14.85;;
52816;SDS011;38687;43.330;21.924;2024-02-15T04:45:02;18.20;;;12.43;;
52816;SDS011;38687;43.330;21.924;2024-02-15T04:47:27;20.20;;;11.00;;
52816;SDS011;38687;43.330;21.924;2024-02-15T04:49:52;22.08;;;11.55;;
52816;SDS011;38687;43.330;21.924;2024-02-15T04:52:19;23.58;;;12.98;;
52816;SDS011;38687;43.330;21.924;2024-02-15T04:54:48;21.98;;;11.18;;
52816;SDS011;38687;43.330;21.924;2024-02-15T04:57:13;20.40;;;11.23;;
52816;SDS011;38687;43.330;21.924;2024-02-15T04:59:39;17.50;;;11.02;;
52816;SDS011;38687;43.330;21.924;2024-02-15T05:02:04;15.60;;;8.98;;
52816;SDS011;38687;43.330;21.924;2024-02-15T05:04:29;20.70;;;10.30;;
52816;SDS011;38687;43.330;21.924;2024-02-15T05:06:57;19.88;;;10.57;;
52816;SDS011;38687;43.330;21.924;2024-02-15T05:09:23;25.88;;;10.68;;
52816;SDS011;38687;43.330;21.924;2024-02-15T05:11:48;15.75;;;10.30;;
52816;SDS011;38687;43.330;21.924;2024-02-15T05:14:14;16.83;;;9.80;;
52816;SDS011;38687;43.330;21.924;2024-02-15T05:16:48;21.30;;;10.73;;
52816;SDS011;38687;43.330;21.924;2024-02-15T05:19:16;19.85;;;11.77;;
52816;SDS011;38687;43.330;21.924;2024-02-15T05:21:42;22.40;;;11.55;;
52816;SDS011;38687;43.330;21.924;2024-02-15T05:24:10;28.42;;;14.07;;
52816;SDS011;38687;43.330;21.924;2024-02-15T05:26:36;54.53;;;23.95;;
52816;SDS011;38687;43.330;21.924;2024-02-15T05:29:01;31.10;;;16.85;;
52816;SDS011;38687;43.330;21.924;2024-02-15T05:31:26;31.00;;;15.85;;
52816;SDS011;38687;43.330;21.924;2024-02-15T05:33:52;24.88;;;12.95;;
52816;SDS011;38687;43.330;21.924;2024-02-15T05:36:21;32.15;;;15.73;;
52816;SDS011;38687;43.330;21.924;2024-02-15T05:38:47;21.92;;;13.13;;
52816;SDS011;38687;43.330;21.924;2024-02-15T05:41:13;19.25;;;11.40;;
52816;SDS011;38687;43.330;21.924;2024-02-15T05:43:39;17.25;;;11.68;;
52816;SDS011;38687;43.330;21.924;2024-02-15T05:46:06;25.23;;;12.25;;
52816;SDS011;38687;43.330;21.924;2024-02-15T05:48:33;45.35;;;16.58;;
52816;SDS011;38687;43.330;21.924;2024-02-15T05:51:00;33.65;;;15.55;;
52816;SDS011;38687;43.330;21.924;2024-02-15T05:53:25;31.58;;;17.65;;
52816;SDS011;38687;43.330;21.924;2024-02-15T05:55:51;50.58;;;20.02;;
52816;SDS011;38687;43.330;21.924;2024-02-15T05:58:17;34.28;;;19.05;;
52816;SDS011;38687;43.330;21.924;2024-02-15T06:00:42;40.17;;;18.95;;
52816;SDS011;38687;43.330;21.924;2024-02-15T06:03:11;33.42;;;17.30;;
52816;SDS011;38687;43.330;21.924;2024-02-15T06:05:37;36.92;;;16.02;;
52816;SDS011;38687;43.330;21.924;2024-02-15T06:08:03;20.88;;;12.82;;
52816;SDS011;38687;43.330;21.924;2024-02-15T06:10:29;24.95;;;14.75;;
52816;SDS011;38687;43.330;21.924;2024-02-15T06:12:56;20.25;;;12.55;;
52816;SDS011;38687;43.330;21.924;2024-02-15T06:15:21;25.58;;;12.77;;
52816;SDS011;38687;43.330;21.924;2024-02-15T06:17:48;20.13;;;11.00;;
52816;SDS011;38687;43.330;21.924;2024-02-15T06:20:14;24.38;;;12.48;;
52816;SDS011;38687;43.330;21.924;2024-02-15T06:22:40;23.75;;;13.73;;
52816;SDS011;38687;43.330;21.924;2024-02-15T06:25:06;22.80;;;14.50;;
52816;SDS011;38687;43.330;21.924;2024-02-15T06:27:31;33.85;;;15.85;;
52816;SDS011;38687;43.330;21.924;2024-02-15T06:29:57;25.23;;;15.40;;
52816;SDS011;38687;43.330;21.924;2024-02-15T06:32:43;30.60;;;15.93;;
52816;SDS011;38687;43.330;21.924;2024-02-15T06:35:27;28.55;;;15.20;;
52816;SDS011;38687;43.330;21.924;2024-02-15T06:38:11;24.55;;;15.18;;
52816;SDS011;38687;43.330;21.924;2024-02-15T06:40:55;32.95;;;16.27;;
52816;SDS011;38687;43.330;21.924;2024-02-15T06:43:20;42.65;;;19.98;;
52816;SDS011;38687;43.330;21.924;2024-02-15T06:45:46;47.40;;;21.45;;
52816;SDS011;38687;43.330;21.924;2024-02-15T06:48:13;44.03;;;23.45;;
52816;SDS011;38687;43.330;21.924;2024-02-15T06:50:38;44.55;;;24.13;;
52816;SDS011;38687;43.330;21.924;2024-02-15T06:53:05;38.15;;;19.90;;
52816;SDS011;38687;43.330;21.924;2024-02-15T06:55:30;49.08;;;24.10;;
52816;SDS011;38687;43.330;21.924;2024-02-15T06:57:56;36.72;;;19.98;;
52816;SDS011;38687;43.330;21.924;2024-02-15T07:00:21;36.20;;;20.77;;
52816;SDS011;38687;43.330;21.924;2024-02-15T07:02:47;31.95;;;18.17;;
52816;SDS011;38687;43.330;21.924;2024-02-15T07:05:14;39.15;;;20.45;;
52816;SDS011;38687;43.330;21.924;2024-02-15T07:07:39;37.70;;;19.80;;
52816;SDS011;38687;43.330;21.924;2024-02-15T07:10:09;35.92;;;18.98;;
52816;SDS011;38687;43.330;21.924;2024-02-15T07:12:35;49.28;;;22.35;;
52816;SDS011;38687;43.330;21.924;2024-02-15T07:15:01;46.67;;;27.13;;
52816;SDS011;38687;43.330;21.924;2024-02-15T07:17:28;36.25;;;20.65;;
52816;SDS011;38687;43.330;21.924;2024-02-15T07:19:53;42.05;;;20.92;;
52816;SDS011;38687;43.330;21.924;2024-02-15T07:22:18;34.72;;;20.25;;
52816;SDS011;38687;43.330;21.924;2024-02-15T07:24:43;42.50;;;21.90;;
52816;SDS011;38687;43.330;21.924;2024-02-15T07:27:09;86.80;;;61.85;;
52816;SDS011;38687;43.330;21.924;2024-02-15T07:29:35;62.65;;;27.10;;
52816;SDS011;38687;43.330;21.924;2024-02-15T07:32:02;56.45;;;27.13;;
52816;SDS011;38687;43.330;21.924;2024-02-15T07:34:31;52.45;;;24.95;;
52816;SDS011;38687;43.330;21.924;2024-02-15T07:36:57;58.45;;;26.83;;
52816;SDS011;38687;43.330;21.924;2024-02-15T07:39:23;56.05;;;25.17;;
52816;SDS011;38687;43.330;21.924;2024-02-15T07:41:52;47.70;;;23.98;;
52816;SDS011;38687;43.330;21.924;2024-02-15T07:44:17;52.05;;;27.88;;
52816;SDS011;38687;43.330;21.924;2024-02-15T07:46:43;61.28;;;29.75;;
52816;SDS011;38687;43.330;21.924;2024-02-15T07:49:09;58.97;;;30.60;;
52816;SDS011;38687;43.330;21.924;2024-02-15T07:51:34;55.25;;;24.55;;
52816;SDS011;38687;43.330;21.924;2024-02-15T07:54:01;51.70;;;26.02;;
52816;SDS011;38687;43.330;21.924;2024-02-15T07:56:26;59.10;;;43.63;;
52816;SDS011;38687;43.330;21.924;2024-02-15T07:58:52;73.78;;;31.92;;
52816;SDS011;38687;43.330;21.924;2024-02-15T08:01:17;45.00;;;22.45;;
52816;SDS011;38687;43.330;21.924;2024-02-15T08:03:45;40.55;;;19.77;;
52816;SDS011;38687;43.330;21.924;2024-02-15T08:06:11;32.75;;;15.90;;
52816;SDS011;38687;43.330;21.924;2024-02-15T08:08:38;26.30;;;14.07;;
52816;SDS011;38687;43.330;21.924;2024-02-15T08:11:04;25.52;;;14.93;;
52816;SDS011;38687;43.330;21.924;2024-02-15T08:13:29;28.85;;;15.02;;
52816;SDS011;38687;43.330;21.924;2024-02-15T08:15:55;23.33;;;13.38;;
52816;SDS011;38687;43.330;21.924;2024-02-15T08:18:20;27.13;;;14.43;;
52816;SDS011;38687;43.330;21.924;2024-02-15T08:20:46;32.15;;;17.45;;
52816;SDS011;38687;43.330;21.924;2024-02-15T08:23:11;35.20;;;16.30;;
52816;SDS011;38687;43.330;21.924;2024-02-15T08:25:39;35.30;;;18.58;;
52816;SDS011;38687;43.330;21.924;2024-02-15T08:28:07;34.50;;;19.52;;
52816;SDS011;38687;43.330;21.924;2024-02-15T08:30:33;30.95;;;16.33;;
52816;SDS011;38687;43.330;21.924;2024-02-15T08:32:58;27.45;;;16.73;;
52816;SDS011;38687;43.330;21.924;2024-02-15T08:35:23;34.95;;;20.67;;
52816;SDS011;38687;43.330;21.924;2024-02-15T08:37:48;59.05;;;26.15;;
52816;SDS011;38687;43.330;21.924;2024-02-15T08:40:22;44.95;;;24.27;;
52816;SDS011;38687;43.330;21.924;2024-02-15T08:42:50;43.00;;;22.70;;
52816;SDS011;38687;43.330;21.924;2024-02-15T08:45:18;81.22;;;27.88;;
52816;SDS011;38687;43.330;21.924;2024-02-15T08:47:45;105.15;;;36.72;;
52816;SDS011;38687;43.330;21.924;2024-02-15T08:50:11;76.38;;;27.17;;
52816;SDS011;38687;43.330;21.924;2024-02-15T08:52:39;56.25;;;23.50;;
52816;SDS011;38687;43.330;21.924;2024-02-15T08:55:08;46.38;;;22.83;;
52816;SDS011;38687;43.330;21.924;2024-02-15T08:57:39;47.60;;;21.58;;
52816;SDS011;38687;43.330;21.924;2024-02-15T09:00:06;33.33;;;19.08;;
52816;SDS011;38687;43.330;21.924;2024-02-15T09:02:38;30.58;;;16.10;;
52816;SDS011;38687;43.330;21.924;2024-02-15T09:05:06;34.45;;;26.73;;
52816;SDS011;38687;43.330;21.924;2024-02-15T09:07:32;23.67;;;13.45;;
52816;SDS011;38687;43.330;21.924;2024-02-15T09:09:58;26.02;;;13.63;;
52816;SDS011;38687;43.330;21.924;2024-02-15T09:12:23;22.30;;;11.80;;
52816;SDS011;38687;43.330;21.924;2024-02-15T09:14:51;24.77;;;12.57;;
52816;SDS011;38687;43.330;21.924;2024-02-15T09:17:16;22.55;;;12.68;;
52816;SDS011;38687;43.330;21.924;2024-02-15T09:19:42;25.23;;;13.35;;
52816;SDS011;38687;43.330;21.924;2024-02-15T09:22:07;42.45;;;17.92;;
52816;SDS011;38687;43.330;21.924;2024-02-15T09:24:32;34.00;;;14.10;;
52816;SDS011;38687;43.330;21.924;2024-02-15T09:27:01;38.15;;;18.77;;
52816;SDS011;38687;43.330;21.924;2024-02-15T09:29:27;31.02;;;13.98;;
52816;SDS011;38687;43.330;21.924;2024-02-15T09:31:54;29.15;;;13.70;;
52816;SDS011;38687;43.330;21.924;2024-02-15T09:34:23;23.40;;;20.25;;
52816;SDS011;38687;43.330;21.924;2024-02-15T09:36:48;21.05;;;11.57;;
52816;SDS011;38687;43.330;21.924;2024-02-15T09:39:14;21.55;;;17.73;;
52816;SDS011;38687;43.330;21.924;2024-02-15T09:41:39;19.75;;;11.48;;
52816;SDS011;38687;43.330;21.924;2024-02-15T09:44:04;24.70;;;13.07;;
52816;SDS011;38687;43.330;21.924;2024-02-15T09:46:30;20.13;;;11.45;;
52816;SDS011;38687;43.330;21.924;2024-02-15T09:48:59;29.30;;;14.52;;
52816;SDS011;38687;43.330;21.924;2024-02-15T09:51:29;24.80;;;12.85;;
52816;SDS011;38687;43.330;21.924;2024-02-15T09:53:56;27.52;;;13.70;;
52816;SDS011;38687;43.330;21.924;2024-02-15T09:56:21;38.08;;;15.85;;
52816;SDS011;38687;43.330;21.924;2024-02-15T09:58:49;31.13;;;15.27;;
52816;SDS011;38687;43.330;21.924;2024-02-15T10:01:15;42.70;;;19.33;;
52816;SDS011;38687;43.330;21.924;2024-02-15T10:03:44;19.83;;;11.80;;
52816;SDS011;38687;43.330;21.924;2024-02-15T10:06:09;18.83;;;10.27;;
52816;SDS011;38687;43.330;21.924;2024-02-15T10:08:35;20.15;;;10.75;;
52816;SDS011;38687;43.330;21.924;2024-02-15T10:11:10;17.85;;;9.00;;
52816;SDS011;38687;43.330;21.924;2024-02-15T10:13:35;24.83;;;11.15;;
52816;SDS011;38687;43.330;21.924;2024-02-15T10:18:53;17.02;;;8.88;;
52816;SDS011;38687;43.330;21.924;2024-02-15T10:21:36;12.93;;;8.23;;
52816;SDS011;38687;43.330;21.924;2024-02-15T10:24:07;18.52;;;9.80;;
52816;SDS011;38687;43.330;21.924;2024-02-15T10:26:33;22.83;;;12.25;;
52816;SDS011;38687;43.330;21.924;2024-02-15T10:29:12;17.00;;;8.95;;
52816;SDS011;38687;43.330;21.924;2024-02-15T10:31:38;19.90;;;15.60;;
52816;SDS011;38687;43.330;21.924;2024-02-15T10:34:05;19.58;;;10.07;;
52816;SDS011;38687;43.330;21.924;2024-02-15T10:36:31;25.55;;;19.45;;
52816;SDS011;38687;43.330;21.924;2024-02-15T10:39:20;7.47;;;5.10;;
52816;SDS011;38687;43.330;21.924;2024-02-15T10:41:46;15.07;;;8.10;;
52816;SDS011;38687;43.330;21.924;2024-02-15T10:44:16;15.50;;;9.05;;
52816;SDS011;38687;43.330;21.924;2024-02-15T10:46:41;18.67;;;7.80;;
52816;SDS011;38687;43.330;21.924;2024-02-15T10:49:07;14.05;;;6.93;;
52816;SDS011;38687;43.330;21.924;2024-02-15T10:51:32;14.35;;;11.60;;
52816;SDS011;38687;43.330;21.924;2024-02-15T10:54:00;14.68;;;10.95;;
52816;SDS011;38687;43.330;21.924;2024-02-15T10:56:31;11.43;;;6.75;;
52816;SDS011;38687;43.330;21.924;2024-02-15T10:59:18;16.75;;;11.77;;
52816;SDS011;38687;43.330;21.924;2024-02-15T11:01:49;23.65;;;9.27;;
52816;SDS011;38687;43.330;21.924;2024-02-15T11:04:19;13.15;;;11.00;;
52816;SDS011;38687;43.330;21.924;2024-02-15T11:06:46;15.43;;;7.60;;
52816;SDS011;38687;43.330;21.924;2024-02-15T11:09:15;9.85;;;7.25;;
52816;SDS011;38687;43.330;21.924;2024-02-15T11:11:41;12.90;;;6.85;;
52816;SDS011;38687;43.330;21.924;2024-02-15T11:16:50;15.07;;;12.32;;
52816;SDS011;38687;43.330;21.924;2024-02-15T11:21:59;11.80;;;6.35;;
52816;SDS011;38687;43.330;21.924;2024-02-15T11:24:28;10.02;;;4.68;;
52816;SDS011;38687;43.330;21.924;2024-02-15T11:26:58;14.45;;;10.90;;
52816;SDS011;38687;43.330;21.924;2024-02-15T11:32:07;17.13;;;11.45;;
52816;SDS011;38687;43.330;21.924;2024-02-15T11:34:49;11.82;;;6.68;;
52816;SDS011;38687;43.330;21.924;2024-02-15T11:39:58;7.63;;;4.78;;
52816;SDS011;38687;43.330;21.924;2024-02-15T11:42:29;7.78;;;5.63;;
52816;SDS011;38687;43.330;21.924;2024-02-15T11:47:47;11.18;;;7.03;;
52816;SDS011;38687;43.330;21.924;2024-02-15T11:50:15;15.00;;;10.25;;
52816;SDS011;38687;43.330;21.924;2024-02-15T11:52:40;12.63;;;6.78;;
52816;SDS011;38687;43.330;21.924;2024-02-15T11:55:07;11.05;;;6.30;;
52816;SDS011;38687;43.330;21.924;2024-02-15T11:57:35;12.45;;;7.47;;
52816;SDS011;38687;43.330;21.924;2024-02-15T12:00:25;9.35;;;6.53;;
52816;SDS011;38687;43.330;21.924;2024-02-15T12:03:09;10.00;;;7.10;;
52816;SDS011;38687;43.330;21.924;2024-02-15T12:05:53;18.13;;;8.90;;
52816;SDS011;38687;43.330;21.924;2024-02-15T12:08:43;43.58;;;18.45;;
52816;SDS011;38687;43.330;21.924;2024-02-15T12:11:30;8.77;;;4.65;;
52816;SDS011;38687;43.330;21.924;2024-02-15T12:14:14;31.70;;;18.90;;
52816;SDS011;38687;43.330;21.924;2024-02-15T12:19:47;20.48;;;13.85;;
52816;SDS011;38687;43.330;21.924;2024-02-15T12:22:18;10.38;;;5.60;;
52816;SDS011;38687;43.330;21.924;2024-02-15T12:24:45;14.48;;;11.27;;
52816;SDS011;38687;43.330;21.924;2024-02-15T12:27:13;14.75;;;6.50;;
52816;SDS011;38687;43.330;21.924;2024-02-15T12:29:38;13.20;;;9.82;;
52816;SDS011;38687;43.330;21.924;2024-02-15T12:32:06;24.60;;;11.93;;
52816;SDS011;38687;43.330;21.924;2024-02-15T12:34:31;10.85;;;6.50;;
52816;SDS011;38687;43.330;21.924;2024-02-15T12:37:06;26.65;;;19.58;;
52816;SDS011;38687;43.330;21.924;2024-02-15T12:39:34;15.90;;;12.95;;
52816;SDS011;38687;43.330;21.924;2024-02-15T12:41:59;13.95;;;11.30;;
52816;SDS011;38687;43.330;21.924;2024-02-15T12:44:25;10.63;;;9.23;;
52816;SDS011;38687;43.330;21.924;2024-02-15T12:46:55;23.63;;;12.95;;
52816;SDS011;38687;43.330;21.924;2024-02-15T12:51:50;23.88;;;16.67;;
52816;SDS011;38687;43.330;21.924;2024-02-15T12:54:19;15.02;;;12.75;;
52816;SDS011;38687;43.330;21.924;2024-02-15T12:56:46;16.35;;;13.15;;
52816;SDS011;38687;43.330;21.924;2024-02-15T12:59:11;18.95;;;9.25;;
52816;SDS011;38687;43.330;21.924;2024-02-15T13:01:37;10.15;;;6.43;;
52816;SDS011;38687;43.330;21.924;2024-02-15T13:04:03;10.50;;;8.70;;
52816;SDS011;38687;43.330;21.924;2024-02-15T13:06:31;12.27;;;9.43;;
52816;SDS011;38687;43.330;21.924;2024-02-15T13:08:56;7.82;;;5.40;;
52816;SDS011;38687;43.330;21.924;2024-02-15T13:11:22;19.02;;;12.48;;
52816;SDS011;38687;43.330;21.924;2024-02-15T13:13:52;17.85;;;11.98;;
52816;SDS011;38687;43.330;21.924;2024-02-15T13:16:20;13.95;;;11.15;;
52816;SDS011;38687;43.330;21.924;2024-02-15T13:18:48;12.02;;;9.13;;
52816;SDS011;38687;43.330;21.924;2024-02-15T13:21:13;8.68;;;4.63;;
52816;SDS011;38687;43.330;21.924;2024-02-15T13:23:39;11.20;;;8.68;;
52816;SDS011;38687;43.330;21.924;2024-02-15T13:26:04;10.45;;;9.07;;
52816;SDS011;38687;43.330;21.924;2024-02-15T13:28:29;12.23;;;6.65;;
52816;SDS011;38687;43.330;21.924;2024-02-15T13:30:55;6.10;;;3.65;;
52816;SDS011;38687;43.330;21.924;2024-02-15T13:33:21;13.50;;;10.73;;
52816;SDS011;38687;43.330;21.924;2024-02-15T13:35:50;8.50;;;5.72;;
52816;SDS011;38687;43.330;21.924;2024-02-15T13:38:15;10.13;;;7.80;;
52816;SDS011;38687;43.330;21.924;2024-02-15T13:40:47;10.02;;;8.98;;
52816;SDS011;38687;43.330;21.924;2024-02-15T13:43:14;9.68;;;8.68;;
52816;SDS011;38687;43.330;21.924;2024-02-15T13:45:43;6.65;;;4.80;;
52816;SDS011;38687;43.330;21.924;2024-02-15T13:48:09;21.05;;;14.68;;
52816;SDS011;38687;43.330;21.924;2024-02-15T13:50:35;5.70;;;4.43;;
52816;SDS011;38687;43.330;21.924;2024-02-15T13:53:04;10.13;;;8.85;;
52816;SDS011;38687;43.330;21.924;2024-02-15T13:55:30;9.25;;;5.07;;
52816;SDS011;38687;43.330;21.924;2024-02-15T13:57:58;7.32;;;3.50;;
52816;SDS011;38687;43.330;21.924;2024-02-15T14:00:26;8.23;;;7.03;;
52816;SDS011;38687;43.330;21.924;2024-02-15T14:02:56;7.85;;;4.95;;
52816;SDS011;38687;43.330;21.924;2024-02-15T14:05:23;8.48;;;6.05;;
52816;SDS011;38687;43.330;21.924;2024-02-15T14:08:00;10.10;;;7.28;;
52816;SDS011;38687;43.330;21.924;2024-02-15T14:10:27;7.75;;;5.10;;
52816;SDS011;38687;43.330;21.924;2024-02-15T14:12:53;6.70;;;4.20;;
52816;SDS011;38687;43.330;21.924;2024-02-15T14:15:20;8.40;;;6.32;;
52816;SDS011;38687;43.330;21.924;2024-02-15T14:17:46;7.57;;;6.03;;
52816;SDS011;38687;43.330;21.924;2024-02-15T14:20:11;7.22;;;6.35;;
52816;SDS011;38687;43.330;21.924;2024-02-15T14:22:45;9.55;;;7.40;;
52816;SDS011;38687;43.330;21.924;2024-02-15T14:25:11;11.27;;;5.43;;
52816;SDS011;38687;43.330;21.924;2024-02-15T14:27:39;9.13;;;7.38;;
52816;SDS011;38687;43.330;21.924;2024-02-15T14:30:05;10.88;;;4.25;;
52816;SDS011;38687;43.330;21.924;2024-02-15T14:32:52;9.02;;;5.32;;
52816;SDS011;38687;43.330;21.924;2024-02-15T14:35:33;9.70;;;6.97;;
52816;SDS011;38687;43.330;21.924;2024-02-15T14:38:00;11.02;;;5.82;;